sim
Sign-in with your pilot id or email,
or register
Callsign
Passwort

Schedule Details

Flight Number: DLH2108 (2)
Departure: Munich Airport (EDDM) at 05:45
Arrival: Bremen Airport (EDDW) at 07:00
Route: Lufthansa Passenger Schedule. Enter filed route here before submitting Pirep.

Weather Information
Getting current METAR information for EDDM 111920Z VRB01KT 9999 FEW043 14/13 Q1024 NOSIG
Getting current METAR information for EDDW 111920Z 25003KT 9999 FEW024 14/13 Q1025 NOSIG

Schedule Frequency

Route Map